createdAt,value
2019-05-19T00:00:48.565Z,980.10
2019-05-19T00:01:48.600Z,980.07
2019-05-19T00:02:48.557Z,980.10
2019-05-19T00:03:48.541Z,980.06
2019-05-19T00:04:48.522Z,980.07
2019-05-19T00:05:48.512Z,980.13
2019-05-19T00:06:48.500Z,980.12
2019-05-19T00:07:48.519Z,980.08
2019-05-19T00:08:48.488Z,980.15
2019-05-19T00:09:48.469Z,980.10
2019-05-19T00:10:48.455Z,980.15
2019-05-19T00:11:48.454Z,980.17
2019-05-19T00:12:48.438Z,980.11
2019-05-19T00:13:48.469Z,980.12
2019-05-19T00:14:48.412Z,980.10
2019-05-19T00:15:48.402Z,980.14
2019-05-19T00:16:48.391Z,980.12
2019-05-19T00:17:48.381Z,980.10
2019-05-19T00:18:48.390Z,980.10
2019-05-19T00:19:48.385Z,980.16
2019-05-19T00:20:48.348Z,980.13
2019-05-19T00:21:48.335Z,980.08
2019-05-19T00:22:48.328Z,980.09
2019-05-19T00:23:48.324Z,980.14
2019-05-19T00:24:48.304Z,980.15
2019-05-19T00:25:48.325Z,980.18
2019-05-19T00:26:48.282Z,980.18
2019-05-19T00:27:48.277Z,980.15
2019-05-19T00:28:48.272Z,980.21
2019-05-19T00:29:48.255Z,980.20
2019-05-19T00:30:48.240Z,980.19
2019-05-19T00:31:48.262Z,980.22
2019-05-19T00:32:48.217Z,980.23
2019-05-19T00:33:48.218Z,980.20
2019-05-19T00:34:48.198Z,980.18
2019-05-19T00:35:48.190Z,980.15
2019-05-19T00:36:48.175Z,980.17
2019-05-19T00:37:48.178Z,980.12
2019-05-19T00:38:48.164Z,980.19
2019-05-19T00:39:48.142Z,980.12
2019-05-19T00:40:48.129Z,980.12
2019-05-19T00:41:48.118Z,980.06
2019-05-19T00:42:48.111Z,980.05
2019-05-19T00:43:48.117Z,980.05
2019-05-19T00:44:48.092Z,980.07
2019-05-19T00:45:48.075Z,980.07
2019-05-19T00:46:48.070Z,980.06
2019-05-19T00:47:48.053Z,980.08
2019-05-19T00:48:48.060Z,980.07
2019-05-19T00:49:48.050Z,980.13
2019-05-19T00:50:48.031Z,980.10
2019-05-19T00:51:48.013Z,980.13
2019-05-19T00:52:47.999Z,980.09
2019-05-19T00:53:47.990Z,980.12
2019-05-19T00:54:47.992Z,980.07
2019-05-19T00:55:47.990Z,980.10
2019-05-19T00:56:47.956Z,980.12
2019-05-19T00:57:47.972Z,980.10
2019-05-19T00:58:47.935Z,980.08
2019-05-19T00:59:47.939Z,980.10
2019-05-19T01:00:47.925Z,980.06
2019-05-19T01:01:47.929Z,980.13
2019-05-19T01:02:47.891Z,980.13
2019-05-19T01:03:47.883Z,980.12
2019-05-19T01:04:47.890Z,980.06
2019-05-19T01:05:47.858Z,980.13
2019-05-19T01:06:47.851Z,980.05
2019-05-19T01:07:47.924Z,980.06
2019-05-19T01:08:47.830Z,980.03
2019-05-19T01:09:47.856Z,980.07
2019-05-19T01:10:47.805Z,980.03
2019-05-19T01:11:47.796Z,980.02
2019-05-19T01:12:47.784Z,980.02
2019-05-19T01:13:47.795Z,979.96
2019-05-19T01:14:47.771Z,979.98
2019-05-19T01:15:47.749Z,979.97
2019-05-19T01:16:47.739Z,980.01
2019-05-19T01:17:47.727Z,979.95
2019-05-19T01:18:47.717Z,979.96
2019-05-19T01:19:55.677Z,979.98
2019-05-19T01:20:48.700Z,979.98
2019-05-19T01:21:47.711Z,979.94
2019-05-19T01:22:47.708Z,979.92
2019-05-19T01:23:47.677Z,979.94
2019-05-19T01:24:47.663Z,979.93
2019-05-19T01:25:47.669Z,979.92
2019-05-19T01:26:47.634Z,979.91
2019-05-19T01:27:47.622Z,979.91
2019-05-19T01:28:47.607Z,979.85
2019-05-19T01:29:47.606Z,979.92
2019-05-19T01:30:47.587Z,979.88
2019-05-19T01:31:47.599Z,979.85
2019-05-19T01:32:47.567Z,979.87
2019-05-19T01:33:47.555Z,979.86
2019-05-19T01:34:47.553Z,979.83
2019-05-19T01:35:47.533Z,979.89
2019-05-19T01:36:47.521Z,979.87
2019-05-19T01:37:47.534Z,979.79
2019-05-19T01:38:47.501Z,979.87
2019-05-19T01:39:47.501Z,979.85
2019-05-19T01:40:47.487Z,979.85
2019-05-19T01:41:47.469Z,979.86
2019-05-19T01:42:47.463Z,979.86
2019-05-19T01:43:47.466Z,979.84
2019-05-19T01:44:47.451Z,979.79
2019-05-19T01:45:47.426Z,979.78
2019-05-19T01:46:47.415Z,979.85
2019-05-19T01:47:47.401Z,979.84
2019-05-19T01:48:47.391Z,979.81
2019-05-19T01:49:47.413Z,979.84
2019-05-19T01:50:47.370Z,979.81
2019-05-19T01:51:47.360Z,979.85
2019-05-19T01:52:47.353Z,979.83
2019-05-19T01:53:47.338Z,979.85
2019-05-19T01:54:47.337Z,979.80
2019-05-19T01:55:47.345Z,979.81
2019-05-19T01:56:47.309Z,979.79
2019-05-19T01:57:47.302Z,979.86
2019-05-19T01:58:47.284Z,979.76
2019-05-19T01:59:47.285Z,979.77
2019-05-19T02:00:47.263Z,979.75
2019-05-19T02:01:47.280Z,979.72
2019-05-19T02:02:47.245Z,979.71
2019-05-19T02:03:47.230Z,979.78
2019-05-19T02:04:47.230Z,979.70
2019-05-19T02:05:47.208Z,979.68
2019-05-19T02:06:47.202Z,979.70
2019-05-19T02:07:47.211Z,979.71
2019-05-19T02:08:47.180Z,979.70
2019-05-19T02:09:47.177Z,979.70
2019-05-19T02:10:47.156Z,979.73
2019-05-19T02:11:47.152Z,979.68
2019-05-19T02:12:47.134Z,979.67
2019-05-19T02:13:47.146Z,979.67
2019-05-19T02:14:47.125Z,979.69
2019-05-19T02:15:47.102Z,979.66
2019-05-19T02:16:47.090Z,979.67
2019-05-19T02:17:47.080Z,979.67
2019-05-19T02:18:47.068Z,979.63
2019-05-19T02:19:47.094Z,979.64
2019-05-19T02:20:47.058Z,979.67
2019-05-19T02:21:47.035Z,979.60
2019-05-19T02:22:47.032Z,979.65
2019-05-19T02:23:47.017Z,979.60
2019-05-19T02:24:47.004Z,979.62
2019-05-19T02:25:47.031Z,979.64
2019-05-19T02:26:46.983Z,979.60
2019-05-19T02:27:46.970Z,979.67
2019-05-19T02:28:46.970Z,979.65
2019-05-19T02:29:46.953Z,979.67
2019-05-19T02:30:46.959Z,979.62
2019-05-19T02:31:46.989Z,979.65
2019-05-19T02:32:46.961Z,979.59
2019-05-19T02:33:46.911Z,979.60
2019-05-19T02:34:46.897Z,979.66
2019-05-19T02:35:46.897Z,979.64
2019-05-19T02:36:46.890Z,979.62
2019-05-19T02:37:46.897Z,979.61
2019-05-19T02:38:46.877Z,979.66
2019-05-19T02:39:46.842Z,979.71
2019-05-19T02:40:46.845Z,979.67
2019-05-19T02:41:46.822Z,979.67
2019-05-19T02:42:46.813Z,979.65
2019-05-19T02:43:46.800Z,979.70
2019-05-19T02:44:46.837Z,979.68
2019-05-19T02:45:46.793Z,979.70
2019-05-19T02:46:46.768Z,979.69
2019-05-19T02:47:46.758Z,979.74
2019-05-19T02:48:46.744Z,979.73
2019-05-19T02:49:46.758Z,979.76
2019-05-19T02:50:51.982Z,979.77
2019-05-19T02:51:47.714Z,979.76
2019-05-19T02:52:46.711Z,979.80
2019-05-19T02:53:46.693Z,979.76
2019-05-19T02:54:46.682Z,979.73
2019-05-19T02:55:46.682Z,979.82
2019-05-19T02:56:46.676Z,979.85
2019-05-19T02:57:46.650Z,979.80
2019-05-19T02:58:46.642Z,979.85
2019-05-19T02:59:46.630Z,979.90
2019-05-19T03:00:46.627Z,979.86
2019-05-19T03:01:46.610Z,979.83
2019-05-19T03:02:46.616Z,979.85
2019-05-19T03:03:46.589Z,979.90
2019-05-19T03:04:46.660Z,979.89
2019-05-19T03:05:46.577Z,979.87
2019-05-19T03:06:46.552Z,979.88
2019-05-19T03:07:46.545Z,979.86
2019-05-19T03:08:46.555Z,979.81
2019-05-19T03:09:46.527Z,979.92
2019-05-19T03:10:46.530Z,979.79
2019-05-19T03:11:46.498Z,979.88
2019-05-19T03:12:46.491Z,979.83
2019-05-19T03:13:46.477Z,979.86
2019-05-19T03:14:46.498Z,979.90
2019-05-19T03:15:46.470Z,979.84
2019-05-19T03:16:46.455Z,979.86
2019-05-19T03:17:46.435Z,979.88
2019-05-19T03:18:46.432Z,979.87
2019-05-19T03:19:46.415Z,979.87
2019-05-19T03:20:46.426Z,979.89
2019-05-19T03:21:46.406Z,979.84
2019-05-19T03:22:46.379Z,979.80
2019-05-19T03:23:46.370Z,979.83
2019-05-19T03:24:46.360Z,979.85
2019-05-19T03:25:46.352Z,979.83
2019-05-19T03:26:46.359Z,979.81
2019-05-19T03:27:46.325Z,979.82
2019-05-19T03:28:46.317Z,979.82
2019-05-19T03:29:46.330Z,979.85
2019-05-19T03:30:46.337Z,979.85
2019-05-19T03:31:46.313Z,979.85
2019-05-19T03:32:46.295Z,979.78
2019-05-19T03:33:46.265Z,979.84
2019-05-19T03:34:46.253Z,979.88
2019-05-19T03:35:46.241Z,979.85
2019-05-19T03:36:46.245Z,979.85
2019-05-19T03:37:46.222Z,979.86
2019-05-19T03:38:46.238Z,979.80
2019-05-19T03:39:46.252Z,979.78
2019-05-19T03:40:46.188Z,979.82
2019-05-19T03:41:46.192Z,979.85
2019-05-19T03:42:46.166Z,979.83
2019-05-19T03:43:46.245Z,979.83
2019-05-19T03:44:46.174Z,979.82
2019-05-19T03:45:46.153Z,979.86
2019-05-19T03:46:46.133Z,979.87
2019-05-19T03:47:46.118Z,979.82
2019-05-19T03:48:46.101Z,979.90
2019-05-19T03:49:46.138Z,979.95
2019-05-19T03:50:48.840Z,979.92
2019-05-19T03:51:46.077Z,979.93
2019-05-19T03:52:46.060Z,979.87
2019-05-19T03:53:46.045Z,979.87
2019-05-19T03:54:46.067Z,979.88
2019-05-19T03:55:46.026Z,979.88
2019-05-19T03:56:46.023Z,979.90
2019-05-19T03:57:46.030Z,979.91
2019-05-19T03:58:45.997Z,979.91
2019-05-19T03:59:45.985Z,979.88
2019-05-19T04:00:46.006Z,979.87
2019-05-19T04:01:46.002Z,979.86
2019-05-19T04:02:45.982Z,979.86
2019-05-19T04:03:45.940Z,979.86
2019-05-19T04:04:45.927Z,979.82
2019-05-19T04:05:45.919Z,979.86
2019-05-19T04:06:45.920Z,979.92
2019-05-19T04:07:45.903Z,979.89
2019-05-19T04:08:45.905Z,979.88
2019-05-19T04:09:45.873Z,979.90
2019-05-19T04:10:45.869Z,979.89
2019-05-19T04:11:45.866Z,979.88
2019-05-19T04:12:45.841Z,979.88
2019-05-19T04:13:45.830Z,979.86
2019-05-19T04:14:45.868Z,979.92
2019-05-19T04:15:45.881Z,979.81
2019-05-19T04:16:45.879Z,979.84
2019-05-19T04:17:45.794Z,979.84
2019-05-19T04:18:45.779Z,979.83
2019-05-19T04:19:45.801Z,979.81
2019-05-19T04:20:45.757Z,979.81
2019-05-19T04:21:49.325Z,979.82
2019-05-19T04:22:45.745Z,979.81
2019-05-19T04:23:45.723Z,979.80
2019-05-19T04:24:45.720Z,979.74
2019-05-19T04:25:45.703Z,979.83
2019-05-19T04:26:45.721Z,979.89
2019-05-19T04:27:45.686Z,979.86
2019-05-19T04:28:45.687Z,979.88
2019-05-19T04:29:45.662Z,979.94
2019-05-19T04:30:45.648Z,979.94
2019-05-19T04:31:45.637Z,979.91
2019-05-19T04:32:45.635Z,979.93
2019-05-19T04:33:45.617Z,979.95
2019-05-19T04:34:45.644Z,979.95
2019-05-19T04:35:45.828Z,979.91
2019-05-19T04:36:45.607Z,979.94
2019-05-19T04:37:45.586Z,979.98
2019-05-19T04:38:45.581Z,979.94
2019-05-19T04:39:45.555Z,979.94
2019-05-19T04:40:45.539Z,979.93
2019-05-19T04:41:45.548Z,979.93
2019-05-19T04:42:45.527Z,979.94
2019-05-19T04:43:45.505Z,979.95
2019-05-19T04:44:45.495Z,979.93
2019-05-19T04:45:45.488Z,979.96
2019-05-19T04:46:45.487Z,979.88
2019-05-19T04:47:45.505Z,979.96
2019-05-19T04:48:45.452Z,979.94
2019-05-19T04:49:45.442Z,979.99
2019-05-19T04:50:45.434Z,979.97
2019-05-19T04:51:45.420Z,979.91
2019-05-19T04:52:45.426Z,979.91
2019-05-19T04:53:45.409Z,979.96
2019-05-19T04:54:45.408Z,979.92
2019-05-19T04:55:45.377Z,979.87
2019-05-19T04:56:45.368Z,979.92
2019-05-19T04:57:45.368Z,979.96
2019-05-19T04:58:45.348Z,979.96
2019-05-19T04:59:45.339Z,979.95
2019-05-19T05:00:45.332Z,979.94
2019-05-19T05:01:45.379Z,979.99
2019-05-19T05:02:45.371Z,979.92
2019-05-19T05:03:45.300Z,979.90
2019-05-19T05:04:45.296Z,979.93
2019-05-19T05:05:45.272Z,979.89
2019-05-19T05:06:45.260Z,979.94
2019-05-19T05:07:45.373Z,979.95
2019-05-19T05:08:45.250Z,979.95
2019-05-19T05:09:45.226Z,979.97
2019-05-19T05:10:45.229Z,979.94
2019-05-19T05:11:45.218Z,979.88
2019-05-19T05:12:45.211Z,979.98
2019-05-19T05:13:45.214Z,979.93
2019-05-19T05:14:45.175Z,979.91
2019-05-19T05:15:45.169Z,979.91
2019-05-19T05:16:45.170Z,979.92
2019-05-19T05:17:45.171Z,979.88
2019-05-19T05:18:47.808Z,979.96
2019-05-19T05:19:45.117Z,979.95
2019-05-19T05:20:45.122Z,979.94
2019-05-19T05:21:45.096Z,980.00
2019-05-19T05:22:45.098Z,979.94
2019-05-19T05:23:45.075Z,979.97
2019-05-19T05:24:45.064Z,980.02
2019-05-19T05:25:45.072Z,979.98
2019-05-19T05:26:45.043Z,979.98
2019-05-19T05:27:45.044Z,980.00
2019-05-19T05:28:45.043Z,979.99
2019-05-19T05:29:45.046Z,979.98
2019-05-19T05:30:45.000Z,979.99
2019-05-19T05:31:45.003Z,980.00
2019-05-19T05:32:44.992Z,979.99
2019-05-19T05:33:44.967Z,979.94
2019-05-19T05:34:44.960Z,979.97
2019-05-19T05:35:44.947Z,979.94
2019-05-19T05:36:44.936Z,980.03
2019-05-19T05:37:44.952Z,979.98
2019-05-19T05:38:44.916Z,979.98
2019-05-19T05:39:44.902Z,979.99
2019-05-19T05:40:44.895Z,979.98
2019-05-19T05:41:44.881Z,980.03
2019-05-19T05:42:44.917Z,979.93
2019-05-19T05:43:44.867Z,979.91
2019-05-19T05:44:44.848Z,979.95
2019-05-19T05:45:44.839Z,979.98
2019-05-19T05:46:44.861Z,979.90
2019-05-19T05:47:44.845Z,979.89
2019-05-19T05:48:44.815Z,979.91
2019-05-19T05:49:44.799Z,979.97
2019-05-19T05:50:44.811Z,979.94
2019-05-19T05:51:44.775Z,979.97
2019-05-19T05:52:44.763Z,979.93
2019-05-19T05:53:44.762Z,979.94
2019-05-19T05:54:44.744Z,979.95
2019-05-19T05:55:44.735Z,979.93
2019-05-19T05:56:44.748Z,979.93
2019-05-19T05:57:44.709Z,979.96
2019-05-19T05:58:44.711Z,979.95
2019-05-19T05:59:44.689Z,979.97
2019-05-19T06:00:44.676Z,979.98
2019-05-19T06:01:44.665Z,980.01
2019-05-19T06:02:44.663Z,979.96
2019-05-19T06:03:44.695Z,979.94
2019-05-19T06:04:44.633Z,979.94
2019-05-19T06:05:44.623Z,979.97
2019-05-19T06:06:45.891Z,979.93
2019-05-19T06:07:44.600Z,980.01
2019-05-19T06:08:44.602Z,979.95
2019-05-19T06:09:44.584Z,979.94
2019-05-19T06:10:44.605Z,979.94
2019-05-19T06:11:44.569Z,979.97
2019-05-19T06:12:44.549Z,979.95
2019-05-19T06:13:44.650Z,979.91
2019-05-19T06:14:44.525Z,979.91
2019-05-19T06:15:44.513Z,979.98
2019-05-19T06:16:44.520Z,979.90
2019-05-19T06:17:44.501Z,979.91
2019-05-19T06:18:44.493Z,979.87
2019-05-19T06:19:44.473Z,979.89
2019-05-19T06:20:44.460Z,979.91
2019-05-19T06:21:44.450Z,979.94
2019-05-19T06:22:55.924Z,979.91
2019-05-19T06:23:45.438Z,979.89
2019-05-19T06:24:44.417Z,979.91
2019-05-19T06:25:44.408Z,979.92
2019-05-19T06:26:44.395Z,979.89
2019-05-19T06:27:44.384Z,979.92
2019-05-19T06:28:44.404Z,979.89
2019-05-19T06:29:44.364Z,979.93
2019-05-19T06:30:44.364Z,979.93
2019-05-19T06:31:44.340Z,979.91
2019-05-19T06:32:44.331Z,979.88
2019-05-19T06:33:44.338Z,979.84
2019-05-19T06:34:44.325Z,979.91
2019-05-19T06:35:44.300Z,979.87
2019-05-19T06:36:44.286Z,979.90
2019-05-19T06:37:44.275Z,979.87
2019-05-19T06:38:44.282Z,979.87
2019-05-19T06:39:44.255Z,979.88
2019-05-19T06:40:44.251Z,979.84
2019-05-19T06:41:44.296Z,979.90
2019-05-19T06:42:44.225Z,979.87
2019-05-19T06:43:44.229Z,979.82
2019-05-19T06:44:44.202Z,979.83
2019-05-19T06:45:44.202Z,979.90
2019-05-19T06:46:44.179Z,979.84
2019-05-19T06:47:44.172Z,979.82
2019-05-19T06:48:44.172Z,979.83
2019-05-19T06:49:44.173Z,979.79
2019-05-19T06:50:44.140Z,979.82
2019-05-19T06:51:44.131Z,979.84
2019-05-19T06:52:44.142Z,979.89
2019-05-19T06:53:44.122Z,979.91
2019-05-19T06:54:44.090Z,979.89
2019-05-19T06:55:44.089Z,979.87
2019-05-19T06:56:44.082Z,979.89
2019-05-19T06:57:44.071Z,979.85
2019-05-19T06:58:44.182Z,979.84
2019-05-19T06:59:44.041Z,979.83
2019-05-19T07:00:44.031Z,979.85
2019-05-19T07:01:44.021Z,979.84
2019-05-19T07:02:44.064Z,979.82
2019-05-19T07:03:44.031Z,979.90
2019-05-19T07:04:43.985Z,979.85
2019-05-19T07:05:43.988Z,979.81
2019-05-19T07:06:44.103Z,979.85
2019-05-19T07:07:44.013Z,979.79
2019-05-19T07:08:43.968Z,979.81
2019-05-19T07:09:57.557Z,979.81
2019-05-19T07:10:44.925Z,979.83
2019-05-19T07:11:44.014Z,979.75
2019-05-19T07:12:43.901Z,979.79
2019-05-19T07:13:43.916Z,979.85
2019-05-19T07:14:43.929Z,979.82
2019-05-19T07:15:43.867Z,979.83
2019-05-19T07:16:43.855Z,979.80
2019-05-19T07:17:44.090Z,979.83
2019-05-19T07:18:43.867Z,979.78
2019-05-19T07:19:43.834Z,979.78
2019-05-19T07:20:43.812Z,979.82
2019-05-19T07:21:43.918Z,979.76
2019-05-19T07:22:43.795Z,979.82
2019-05-19T07:23:43.779Z,979.73
2019-05-19T07:24:43.783Z,979.73
2019-05-19T07:25:43.763Z,979.80
2019-05-19T07:26:43.792Z,979.74
2019-05-19T07:27:43.739Z,979.73
2019-05-19T07:28:43.732Z,979.77
2019-05-19T07:29:43.726Z,979.69
2019-05-19T07:30:43.705Z,979.79
2019-05-19T07:31:43.703Z,979.78
2019-05-19T07:32:43.738Z,979.80
2019-05-19T07:33:43.674Z,979.73
2019-05-19T07:34:43.677Z,979.73
2019-05-19T07:35:43.653Z,979.73
2019-05-19T07:36:43.643Z,979.74
2019-05-19T07:37:43.646Z,979.72
2019-05-19T07:38:43.662Z,979.74
2019-05-19T07:39:43.628Z,979.69
2019-05-19T07:40:43.606Z,979.76
2019-05-19T07:41:43.591Z,979.75
2019-05-19T07:42:43.579Z,979.72
2019-05-19T07:43:43.572Z,979.73
2019-05-19T07:44:45.399Z,979.77
2019-05-19T07:45:43.546Z,979.72
2019-05-19T07:46:43.565Z,979.69
2019-05-19T07:47:43.557Z,979.75
2019-05-19T07:48:43.513Z,979.75
2019-05-19T07:49:43.514Z,979.78
2019-05-19T07:50:43.491Z,979.81
2019-05-19T07:51:43.509Z,979.73
2019-05-19T07:52:43.471Z,979.79
2019-05-19T07:53:43.568Z,979.83
2019-05-19T07:54:43.472Z,979.78
2019-05-19T07:55:43.436Z,979.82
2019-05-19T07:56:43.426Z,979.83
2019-05-19T07:57:43.411Z,979.75
2019-05-19T07:58:43.434Z,979.78
2019-05-19T07:59:43.400Z,979.83
2019-05-19T08:00:43.412Z,979.74
2019-05-19T08:01:43.372Z,979.79
2019-05-19T08:02:43.356Z,979.81
2019-05-19T08:03:43.439Z,979.78
2019-05-19T08:04:43.365Z,979.71
2019-05-19T08:05:43.323Z,979.77
2019-05-19T08:06:43.405Z,979.82
2019-05-19T08:07:43.706Z,979.76
2019-05-19T08:08:43.329Z,979.76
2019-05-19T08:09:43.360Z,979.79
2019-05-19T08:10:43.304Z,979.80
2019-05-19T08:11:43.338Z,979.72
2019-05-19T08:12:43.248Z,979.73
2019-05-19T08:13:43.495Z,979.79
2019-05-19T08:14:43.285Z,979.76
2019-05-19T08:15:43.264Z,979.76
2019-05-19T08:16:43.204Z,979.81
2019-05-19T08:17:43.894Z,979.81
2019-05-19T08:18:43.183Z,979.82
2019-05-19T08:19:43.211Z,979.85
2019-05-19T08:20:43.916Z,979.84
2019-05-19T08:21:43.150Z,979.84
2019-05-19T08:22:43.146Z,979.83
2019-05-19T08:23:56.863Z,979.81
2019-05-19T08:24:44.162Z,979.84
2019-05-19T08:25:43.111Z,979.87
2019-05-19T08:26:43.095Z,979.83
2019-05-19T08:27:43.138Z,979.82
2019-05-19T08:28:43.386Z,979.89
2019-05-19T08:29:43.078Z,979.87
2019-05-19T08:30:43.081Z,979.82
2019-05-19T08:31:43.304Z,979.84
2019-05-19T08:32:43.334Z,979.87
2019-05-19T08:33:43.049Z,979.84
2019-05-19T08:34:43.025Z,979.83
2019-05-19T08:35:43.045Z,979.84
2019-05-19T08:36:43.050Z,979.85
2019-05-19T08:37:42.984Z,979.82
2019-05-19T08:38:42.991Z,979.83
2019-05-19T08:39:43.048Z,979.83
2019-05-19T08:40:42.982Z,979.82
2019-05-19T08:41:42.944Z,979.91
2019-05-19T08:42:42.938Z,979.88
2019-05-19T08:43:42.913Z,979.79
2019-05-19T08:44:42.927Z,979.86
2019-05-19T08:45:42.940Z,979.81
2019-05-19T08:46:42.887Z,979.82
2019-05-19T08:47:42.870Z,979.80
2019-05-19T08:48:42.898Z,979.74
2019-05-19T08:49:42.848Z,979.74
2019-05-19T08:50:42.891Z,979.80
2019-05-19T08:51:42.868Z,979.80
2019-05-19T08:52:42.815Z,979.74
2019-05-19T08:53:42.800Z,979.76
2019-05-19T08:54:42.794Z,979.73
2019-05-19T08:55:42.791Z,979.80
2019-05-19T08:56:42.810Z,979.74
2019-05-19T08:57:42.759Z,979.70
2019-05-19T08:58:42.753Z,979.73
2019-05-19T08:59:42.767Z,979.71
2019-05-19T09:00:42.735Z,979.71
2019-05-19T09:01:42.718Z,979.68
2019-05-19T09:02:42.802Z,979.69
2019-05-19T09:03:42.694Z,979.65
2019-05-19T09:04:42.704Z,979.70
2019-05-19T09:05:42.683Z,979.68
2019-05-19T09:06:42.665Z,979.64
2019-05-19T09:07:42.650Z,979.61
2019-05-19T09:08:42.780Z,979.72
2019-05-19T09:09:42.637Z,979.69
2019-05-19T09:10:42.629Z,979.61
2019-05-19T09:11:42.610Z,979.66
2019-05-19T09:12:42.623Z,979.67
2019-05-19T09:13:42.590Z,979.59
2019-05-19T09:14:42.601Z,979.62
2019-05-19T09:15:42.588Z,979.63
2019-05-19T09:16:42.560Z,979.67
2019-05-19T09:17:42.549Z,979.66
2019-05-19T09:18:42.540Z,979.62
2019-05-19T09:19:42.526Z,979.70
2019-05-19T09:20:42.583Z,979.61
2019-05-19T09:21:42.510Z,979.63
2019-05-19T09:22:42.505Z,979.67
2019-05-19T09:23:42.485Z,979.68
2019-05-19T09:24:42.472Z,979.66
2019-05-19T09:25:42.472Z,979.68
2019-05-19T09:26:42.488Z,979.63
2019-05-19T09:27:42.443Z,979.61
2019-05-19T09:28:42.427Z,979.63
2019-05-19T09:29:42.419Z,979.62
2019-05-19T09:30:42.470Z,979.59
2019-05-19T09:31:42.395Z,979.63
2019-05-19T09:32:42.403Z,979.59
2019-05-19T09:33:42.419Z,979.62
2019-05-19T09:34:42.362Z,979.65
2019-05-19T09:35:42.367Z,979.70
2019-05-19T09:36:42.351Z,979.69
2019-05-19T09:37:42.348Z,979.63
2019-05-19T09:38:42.317Z,979.66
2019-05-19T09:39:42.321Z,979.65
2019-05-19T09:40:42.310Z,979.64
2019-05-19T09:41:42.299Z,979.63
2019-05-19T09:42:42.286Z,979.58
2019-05-19T09:43:42.273Z,979.63
2019-05-19T09:44:42.267Z,979.58
2019-05-19T09:45:42.258Z,979.57
2019-05-19T09:46:42.306Z,979.62
2019-05-19T09:47:42.220Z,979.60
2019-05-19T09:48:42.208Z,979.60
2019-05-19T09:49:42.200Z,979.59
2019-05-19T09:50:42.223Z,979.59
2019-05-19T09:51:42.188Z,979.57
2019-05-19T09:52:42.168Z,979.60
2019-05-19T09:53:42.182Z,979.61
2019-05-19T09:54:45.293Z,979.60
2019-05-19T09:55:42.135Z,979.60
2019-05-19T09:56:42.136Z,979.52
2019-05-19T09:57:42.116Z,979.56
2019-05-19T09:58:42.100Z,979.60
2019-05-19T09:59:42.087Z,979.53
2019-05-19T10:00:42.096Z,979.51
2019-05-19T10:01:42.077Z,979.52
2019-05-19T10:02:42.065Z,979.52
2019-05-19T10:03:42.046Z,979.56
2019-05-19T10:04:42.037Z,979.56
2019-05-19T10:05:42.023Z,979.58
2019-05-19T10:06:42.040Z,979.56
2019-05-19T10:07:42.019Z,979.60
2019-05-19T10:08:42.010Z,979.56
2019-05-19T10:09:42.015Z,979.54
2019-05-19T10:10:41.967Z,979.56
2019-05-19T10:11:41.977Z,979.56
2019-05-19T10:12:41.947Z,979.52
2019-05-19T10:13:41.949Z,979.56
2019-05-19T10:14:41.945Z,979.57
2019-05-19T10:15:41.919Z,979.58
2019-05-19T10:16:41.929Z,979.61
2019-05-19T10:17:41.950Z,979.64
2019-05-19T10:18:41.887Z,979.63
2019-05-19T10:19:41.877Z,979.53
2019-05-19T10:20:41.889Z,979.58
2019-05-19T10:21:41.860Z,979.55
2019-05-19T10:22:41.855Z,979.57
2019-05-19T10:23:41.857Z,979.58
2019-05-19T10:24:56.357Z,979.54
2019-05-19T10:25:42.804Z,979.58
2019-05-19T10:26:41.811Z,979.57
2019-05-19T10:27:41.788Z,979.52
2019-05-19T10:28:41.822Z,979.53
2019-05-19T10:29:41.762Z,979.58
2019-05-19T10:30:41.783Z,979.57
2019-05-19T10:31:41.752Z,979.51
2019-05-19T10:32:41.733Z,979.57
2019-05-19T10:33:41.775Z,979.58
2019-05-19T10:34:41.711Z,979.55
2019-05-19T10:35:41.705Z,979.52
2019-05-19T10:36:41.732Z,979.52
2019-05-19T10:37:41.681Z,979.55
2019-05-19T10:38:41.667Z,979.52
2019-05-19T10:39:41.675Z,979.54
2019-05-19T10:40:41.651Z,979.55
2019-05-19T10:41:41.666Z,979.51
2019-05-19T10:42:41.649Z,979.50
2019-05-19T10:43:41.632Z,979.50
2019-05-19T10:44:41.607Z,979.50
2019-05-19T10:45:41.594Z,979.48
2019-05-19T10:46:41.609Z,979.53
2019-05-19T10:47:41.587Z,979.49
2019-05-19T10:48:41.572Z,979.48
2019-05-19T10:49:43.113Z,979.44
2019-05-19T10:50:41.540Z,979.51
2019-05-19T10:51:41.590Z,979.51
2019-05-19T10:52:41.529Z,979.52
2019-05-19T10:53:41.522Z,979.48
2019-05-19T10:54:41.508Z,979.46
2019-05-19T10:55:41.536Z,979.48
2019-05-19T10:56:41.488Z,979.49
2019-05-19T10:57:41.500Z,979.51
2019-05-19T10:58:41.461Z,979.47
2019-05-19T10:59:41.444Z,979.45
2019-05-19T11:00:41.434Z,979.44
2019-05-19T11:01:41.428Z,979.45
2019-05-19T11:02:41.451Z,979.44
2019-05-19T11:03:41.413Z,979.49
2019-05-19T11:04:41.389Z,979.47
2019-05-19T11:05:41.384Z,979.45
2019-05-19T11:06:41.368Z,979.44
2019-05-19T11:07:41.370Z,979.44
2019-05-19T11:08:41.361Z,979.43
2019-05-19T11:09:41.363Z,979.45
2019-05-19T11:10:41.328Z,979.44
2019-05-19T11:11:41.331Z,979.43
2019-05-19T11:12:41.322Z,979.39
2019-05-19T11:13:41.356Z,979.40
2019-05-19T11:14:41.302Z,979.42
2019-05-19T11:15:41.272Z,979.40
2019-05-19T11:16:41.259Z,979.42
2019-05-19T11:17:41.265Z,979.40
2019-05-19T11:18:41.261Z,979.41
2019-05-19T11:19:41.234Z,979.36
2019-05-19T11:20:41.216Z,979.40
2019-05-19T11:21:41.227Z,979.36
2019-05-19T11:22:41.227Z,979.36
2019-05-19T11:23:41.222Z,979.35
2019-05-19T11:24:41.181Z,979.36
2019-05-19T11:25:51.110Z,979.31
2019-05-19T11:26:42.157Z,979.29
2019-05-19T11:27:41.164Z,979.36
2019-05-19T11:28:41.135Z,979.36
2019-05-19T11:29:41.123Z,979.39
2019-05-19T11:30:41.119Z,979.35
2019-05-19T11:31:41.105Z,979.37
2019-05-19T11:32:41.104Z,979.32
2019-05-19T11:33:41.102Z,979.33
2019-05-19T11:34:41.086Z,979.34
2019-05-19T11:35:41.070Z,979.30
2019-05-19T11:36:41.080Z,979.27
2019-05-19T11:37:41.048Z,979.35
2019-05-19T11:38:41.028Z,979.33
2019-05-19T11:39:41.027Z,979.29
2019-05-19T11:40:41.014Z,979.23
2019-05-19T11:41:41.010Z,979.28
2019-05-19T11:42:40.990Z,979.28
2019-05-19T11:43:40.984Z,979.33
2019-05-19T11:44:40.962Z,979.26
2019-05-19T11:45:40.950Z,979.30
2019-05-19T11:46:40.941Z,979.27
2019-05-19T11:47:40.941Z,979.32
2019-05-19T11:48:40.924Z,979.25
2019-05-19T11:49:40.901Z,979.31
2019-05-19T11:50:42.113Z,979.28
2019-05-19T11:51:40.881Z,979.24
2019-05-19T11:52:41.097Z,979.25
2019-05-19T11:53:40.860Z,979.32
2019-05-19T11:54:40.862Z,979.25
2019-05-19T11:55:40.862Z,979.34
2019-05-19T11:56:40.824Z,979.26
2019-05-19T11:57:40.824Z,979.28
2019-05-19T11:58:40.806Z,979.25
2019-05-19T11:59:40.794Z,979.26
2019-05-19T12:00:40.796Z,979.24
2019-05-19T12:01:40.825Z,979.21
2019-05-19T12:02:40.770Z,979.25
2019-05-19T12:03:40.778Z,979.22
2019-05-19T12:04:40.745Z,979.26
2019-05-19T12:05:40.741Z,979.22
2019-05-19T12:06:40.730Z,979.29
2019-05-19T12:07:40.716Z,979.28
2019-05-19T12:08:40.708Z,979.27
2019-05-19T12:09:40.717Z,979.18
2019-05-19T12:10:40.682Z,979.26
2019-05-19T12:11:40.679Z,979.23
2019-05-19T12:12:40.661Z,979.19
2019-05-19T12:13:40.654Z,979.18
2019-05-19T12:14:40.647Z,979.15
2019-05-19T12:15:40.634Z,979.14
2019-05-19T12:16:40.653Z,979.18
2019-05-19T12:17:40.613Z,979.16
2019-05-19T12:18:40.602Z,979.14
2019-05-19T12:19:40.581Z,979.22
2019-05-19T12:20:40.579Z,979.22
2019-05-19T12:21:40.557Z,979.21
2019-05-19T12:22:40.555Z,979.25
2019-05-19T12:23:40.555Z,979.30
2019-05-19T12:24:40.526Z,979.26
2019-05-19T12:25:40.515Z,979.20
2019-05-19T12:26:40.511Z,979.22
2019-05-19T12:27:40.528Z,979.19
2019-05-19T12:28:40.564Z,979.16